sensor_id;sensor_type;location;lat;lon;timestamp;pressure;altitude;pressure_sealevel;temperature;humidity
69302;BME280;56689;47.842;8.974;2023-12-20T10:11:15;96888.97;;;5.63;100.00
69302;BME280;56689;47.842;8.974;2023-12-20T10:14:39;96880.63;;;5.71;100.00
69302;BME280;56689;47.842;8.974;2023-12-20T10:17:54;96874.03;;;5.81;100.00
69302;BME280;56689;47.842;8.974;2023-12-20T10:24:15;96856.09;;;5.84;100.00
69302;BME280;56689;47.842;8.974;2023-12-20T10:27:36;96879.69;;;5.98;100.00
69302;BME280;56689;47.842;8.974;2023-12-20T10:31:03;96848.25;;;5.81;100.00
69302;BME280;56689;47.842;8.974;2023-12-20T10:33:36;96852.91;;;5.93;100.00
69302;BME280;56689;47.842;8.974;2023-12-20T10:36:01;96849.66;;;5.98;100.00
69302;BME280;56689;47.842;8.974;2023-12-20T10:38:53;96860.16;;;6.06;100.00
69302;BME280;56689;47.842;8.974;2023-12-20T10:41:45;96850.56;;;6.00;100.00
69302;BME280;56689;47.842;8.974;2023-12-20T10:45:00;96847.31;;;6.08;100.00
69302;BME280;56689;47.842;8.974;2023-12-20T10:47:45;96834.50;;;6.11;100.00
69302;BME280;56689;47.842;8.974;2023-12-20T10:51:04;96859.44;;;6.45;100.00
69302;BME280;56689;47.842;8.974;2023-12-20T10:53:39;96834.44;;;6.41;100.00
69302;BME280;56689;47.842;8.974;2023-12-20T17:11:46;96894.72;;;3.06;100.00
69302;BME280;56689;47.842;8.974;2023-12-20T17:14:30;96916.44;;;3.15;100.00
69302;BME280;56689;47.842;8.974;2023-12-20T17:16:58;96929.94;;;3.10;100.00
69302;BME280;56689;47.842;8.974;2023-12-20T17:19:41;96924.28;;;3.18;100.00
69302;BME280;56689;47.842;8.974;2023-12-20T17:22:20;96920.09;;;3.20;100.00
69302;BME280;56689;47.842;8.974;2023-12-20T17:27:49;96926.38;;;3.28;100.00
69302;BME280;56689;47.842;8.974;2023-12-20T17:30:26;96902.38;;;3.26;100.00
69302;BME280;56689;47.842;8.974;2023-12-20T17:32:56;96896.06;;;3.18;100.00
69302;BME280;56689;47.842;8.974;2023-12-20T17:35:38;96906.66;;;3.27;100.00
69302;BME280;56689;47.842;8.974;2023-12-20T17:38:10;96901.16;;;3.17;100.00
69302;BME280;56689;47.842;8.974;2023-12-20T17:40:41;96919.75;;;3.34;100.00
69302;BME280;56689;47.842;8.974;2023-12-20T17:43:34;96915.53;;;3.36;100.00
69302;BME280;56689;47.842;8.974;2023-12-20T17:46:04;96954.44;;;3.46;100.00
69302;BME280;56689;47.842;8.974;2023-12-20T17:48:29;96951.84;;;3.45;100.00
69302;BME280;56689;47.842;8.974;2023-12-20T17:50:55;96934.25;;;3.33;100.00
69302;BME280;56689;47.842;8.974;2023-12-20T17:53:37;96946.56;;;3.42;100.00
69302;BME280;56689;47.842;8.974;2023-12-20T17:56:11;96939.50;;;3.36;100.00
69302;BME280;56689;47.842;8.974;2023-12-20T17:58:42;96941.28;;;3.37;100.00
69302;BME280;56689;47.842;8.974;2023-12-20T18:01:10;96937.25;;;3.44;100.00
69302;BME280;56689;47.842;8.974;2023-12-20T18:03:45;96928.84;;;3.48;98.73
69302;BME280;56689;47.842;8.974;2023-12-20T18:06:20;96956.72;;;3.61;98.71
69302;BME280;56689;47.842;8.974;2023-12-20T18:09:22;96960.59;;;3.72;97.70
69302;BME280;56689;47.842;8.974;2023-12-20T18:11:57;96951.81;;;3.67;96.67
69302;BME280;56689;47.842;8.974;2023-12-20T18:14:27;96942.72;;;3.53;99.01
69302;BME280;56689;47.842;8.974;2023-12-20T18:17:03;96949.56;;;3.52;100.00
69302;BME280;56689;47.842;8.974;2023-12-20T18:19:32;96938.41;;;3.52;96.85
69302;BME280;56689;47.842;8.974;2023-12-20T18:22:04;96950.66;;;3.59;98.90
69302;BME280;56689;47.842;8.974;2023-12-20T18:24:40;96978.50;;;3.71;97.59
69302;BME280;56689;47.842;8.974;2023-12-20T18:27:13;96966.59;;;3.73;96.27
69302;BME280;56689;47.842;8.974;2023-12-20T18:30:02;96974.06;;;3.67;100.00
69302;BME280;56689;47.842;8.974;2023-12-20T18:32:37;96935.66;;;3.47;100.00
69302;BME280;56689;47.842;8.974;2023-12-20T18:35:25;96966.53;;;3.71;98.59
69302;BME280;56689;47.842;8.974;2023-12-20T18:37:53;96937.34;;;3.47;99.22
69302;BME280;56689;47.842;8.974;2023-12-20T18:40:48;96962.03;;;3.66;99.36
69302;BME280;56689;47.842;8.974;2023-12-20T18:43:17;96972.38;;;3.67;100.00
69302;BME280;56689;47.842;8.974;2023-12-20T18:46:01;96956.53;;;3.56;99.06
69302;BME280;56689;47.842;8.974;2023-12-20T18:48:38;96940.81;;;3.47;100.00
69302;BME280;56689;47.842;8.974;2023-12-20T18:51:26;96948.63;;;3.50;99.78
69302;BME280;56689;47.842;8.974;2023-12-20T18:54:03;96969.47;;;3.58;100.00
69302;BME280;56689;47.842;8.974;2023-12-20T18:56:31;96955.38;;;3.48;99.96
69302;BME280;56689;47.842;8.974;2023-12-20T19:02:12;96959.78;;;3.51;98.30
69302;BME280;56689;47.842;8.974;2023-12-20T19:04:47;96960.00;;;3.57;99.70
69302;BME280;56689;47.842;8.974;2023-12-20T19:07:16;96960.66;;;3.51;100.00
69302;BME280;56689;47.842;8.974;2023-12-20T19:10:03;96965.84;;;3.53;99.03
69302;BME280;56689;47.842;8.974;2023-12-20T19:12:37;96983.41;;;3.65;100.00
69302;BME280;56689;47.842;8.974;2023-12-20T19:15:20;96967.75;;;3.59;100.00
69302;BME280;56689;47.842;8.974;2023-12-20T19:18:19;96945.16;;;3.50;100.00
69302;BME280;56689;47.842;8.974;2023-12-20T19:21:19;96952.88;;;3.50;100.00
69302;BME280;56689;47.842;8.974;2023-12-20T19:24:02;96928.50;;;3.39;100.00
69302;BME280;56689;47.842;8.974;2023-12-20T19:27:09;96926.66;;;3.36;100.00
69302;BME280;56689;47.842;8.974;2023-12-20T19:29:45;96949.38;;;3.48;100.00
69302;BME280;56689;47.842;8.974;2023-12-20T19:32:14;96936.31;;;3.42;100.00
69302;BME280;56689;47.842;8.974;2023-12-20T19:34:50;96953.22;;;3.59;100.00
69302;BME280;56689;47.842;8.974;2023-12-20T19:37:23;96918.28;;;3.40;100.00
69302;BME280;56689;47.842;8.974;2023-12-20T19:39:54;96954.28;;;3.64;100.00
69302;BME280;56689;47.842;8.974;2023-12-20T19:42:35;96934.69;;;3.44;100.00
69302;BME280;56689;47.842;8.974;2023-12-20T19:45:16;96942.03;;;3.57;100.00
69302;BME280;56689;47.842;8.974;2023-12-20T19:48:06;96943.88;;;3.61;100.00
69302;BME280;56689;47.842;8.974;2023-12-20T19:50:44;96918.47;;;3.45;100.00
69302;BME280;56689;47.842;8.974;2023-12-20T19:53:30;96913.56;;;3.51;100.00
69302;BME280;56689;47.842;8.974;2023-12-20T19:56:01;96943.44;;;3.71;100.00
69302;BME280;56689;47.842;8.974;2023-12-20T19:58:39;96939.75;;;3.65;100.00
69302;BME280;56689;47.842;8.974;2023-12-20T20:01:19;96911.09;;;3.54;100.00
69302;BME280;56689;47.842;8.974;2023-12-20T20:03:49;96931.25;;;3.66;100.00
69302;BME280;56689;47.842;8.974;2023-12-20T20:06:17;96895.38;;;3.45;100.00
69302;BME280;56689;47.842;8.974;2023-12-20T20:08:49;96934.44;;;3.60;100.00
69302;BME280;56689;47.842;8.974;2023-12-20T20:11:17;96913.31;;;3.67;100.00
69302;BME280;56689;47.842;8.974;2023-12-20T20:13:46;96881.91;;;3.50;100.00
69302;BME280;56689;47.842;8.974;2023-12-20T20:16:15;96895.00;;;3.58;100.00
69302;BME280;56689;47.842;8.974;2023-12-20T20:18:43;96881.66;;;3.44;100.00
69302;BME280;56689;47.842;8.974;2023-12-20T20:21:09;96885.38;;;3.52;100.00
69302;BME280;56689;47.842;8.974;2023-12-20T20:23:40;96875.06;;;3.51;100.00
69302;BME280;56689;47.842;8.974;2023-12-20T20:26:06;96868.84;;;3.44;100.00
69302;BME280;56689;47.842;8.974;2023-12-20T20:28:34;96862.94;;;3.47;100.00
69302;BME280;56689;47.842;8.974;2023-12-20T20:31:02;96855.19;;;3.45;100.00
69302;BME280;56689;47.842;8.974;2023-12-20T20:33:28;96858.91;;;3.53;100.00
69302;BME280;56689;47.842;8.974;2023-12-20T20:35:53;96856.06;;;3.46;100.00
69302;BME280;56689;47.842;8.974;2023-12-20T20:44:33;96856.88;;;3.45;100.00
69302;BME280;56689;47.842;8.974;2023-12-20T20:47:22;96842.22;;;3.42;100.00
69302;BME280;56689;47.842;8.974;2023-12-20T20:50:02;96860.53;;;3.51;100.00
69302;BME280;56689;47.842;8.974;2023-12-20T20:52:29;96879.53;;;3.56;100.00
69302;BME280;56689;47.842;8.974;2023-12-20T20:54:55;96870.81;;;3.51;100.00
69302;BME280;56689;47.842;8.974;2023-12-20T20:57:20;96862.75;;;3.42;100.00
69302;BME280;56689;47.842;8.974;2023-12-20T20:59:49;96888.00;;;3.54;100.00
69302;BME280;56689;47.842;8.974;2023-12-20T21:02:14;96873.09;;;3.44;100.00
69302;BME280;56689;47.842;8.974;2023-12-20T21:04:40;96884.47;;;3.50;100.00
69302;BME280;56689;47.842;8.974;2023-12-20T21:07:06;96860.19;;;3.42;100.00
69302;BME280;56689;47.842;8.974;2023-12-20T21:09:32;96850.16;;;3.48;100.00
69302;BME280;56689;47.842;8.974;2023-12-20T21:11:58;96854.00;;;3.60;99.24
69302;BME280;56689;47.842;8.974;2023-12-20T21:14:23;96835.84;;;3.55;100.00
69302;BME280;56689;47.842;8.974;2023-12-20T21:16:51;96848.09;;;3.62;100.00
69302;BME280;56689;47.842;8.974;2023-12-20T21:19:16;96854.88;;;3.60;100.00
69302;BME280;56689;47.842;8.974;2023-12-20T21:21:42;96832.13;;;3.47;99.71
69302;BME280;56689;47.842;8.974;2023-12-20T21:24:07;96847.84;;;3.56;100.00
69302;BME280;56689;47.842;8.974;2023-12-20T21:26:33;96849.28;;;3.48;98.51
69302;BME280;56689;47.842;8.974;2023-12-20T21:28:59;96847.81;;;3.54;96.92
69302;BME280;56689;47.842;8.974;2023-12-20T21:31:26;96842.41;;;3.47;97.27
69302;BME280;56689;47.842;8.974;2023-12-20T21:33:51;96873.88;;;3.65;95.92
69302;BME280;56689;47.842;8.974;2023-12-20T21:36:20;96864.03;;;3.53;98.67
69302;BME280;56689;47.842;8.974;2023-12-20T21:38:47;96871.38;;;3.67;96.05
69302;BME280;56689;47.842;8.974;2023-12-20T21:41:16;96837.25;;;3.47;94.73
69302;BME280;56689;47.842;8.974;2023-12-20T21:43:44;96859.78;;;3.54;95.74
69302;BME280;56689;47.842;8.974;2023-12-20T21:46:10;96838.25;;;3.50;95.29
69302;BME280;56689;47.842;8.974;2023-12-20T21:48:35;96844.31;;;3.52;95.29
69302;BME280;56689;47.842;8.974;2023-12-20T21:51:02;96823.78;;;3.52;93.56
69302;BME280;56689;47.842;8.974;2023-12-20T21:53:28;96828.28;;;3.58;93.28
69302;BME280;56689;47.842;8.974;2023-12-20T21:55:54;96838.00;;;3.67;93.42
69302;BME280;56689;47.842;8.974;2023-12-20T21:58:19;96803.44;;;3.57;93.31
69302;BME280;56689;47.842;8.974;2023-12-20T22:00:45;96827.50;;;3.61;94.24
69302;BME280;56689;47.842;8.974;2023-12-20T22:03:11;96822.09;;;3.53;94.16
69302;BME280;56689;47.842;8.974;2023-12-20T22:05:37;96814.84;;;3.43;95.44
69302;BME280;56689;47.842;8.974;2023-12-20T22:08:05;96805.50;;;3.43;98.35
69302;BME280;56689;47.842;8.974;2023-12-20T22:10:31;96806.47;;;3.47;98.13
69302;BME280;56689;47.842;8.974;2023-12-20T22:12:58;96822.41;;;3.62;97.08
69302;BME280;56689;47.842;8.974;2023-12-20T22:15:23;96786.03;;;3.50;95.97
69302;BME280;56689;47.842;8.974;2023-12-20T22:17:56;96805.28;;;3.61;95.72
69302;BME280;56689;47.842;8.974;2023-12-20T22:20:21;96781.72;;;3.49;97.63
69302;BME280;56689;47.842;8.974;2023-12-20T22:22:47;96788.81;;;3.56;98.57
69302;BME280;56689;47.842;8.974;2023-12-20T22:25:13;96768.03;;;3.48;97.09
69302;BME280;56689;47.842;8.974;2023-12-20T22:27:39;96782.22;;;3.63;94.73
69302;BME280;56689;47.842;8.974;2023-12-20T22:30:05;96779.44;;;3.56;96.17
69302;BME280;56689;47.842;8.974;2023-12-20T22:32:31;96784.47;;;3.53;97.40
69302;BME280;56689;47.842;8.974;2023-12-20T22:34:56;96788.03;;;3.57;96.82
69302;BME280;56689;47.842;8.974;2023-12-20T22:37:22;96802.81;;;3.64;94.78
69302;BME280;56689;47.842;8.974;2023-12-20T22:39:49;96773.16;;;3.48;97.04
69302;BME280;56689;47.842;8.974;2023-12-20T22:42:16;96771.59;;;3.52;95.19
69302;BME280;56689;47.842;8.974;2023-12-20T22:44:42;96775.97;;;3.56;96.30
69302;BME280;56689;47.842;8.974;2023-12-20T22:47:08;96768.88;;;3.49;96.85
69302;BME280;56689;47.842;8.974;2023-12-20T22:49:35;96772.63;;;3.57;95.66
69302;BME280;56689;47.842;8.974;2023-12-20T22:52:01;96775.19;;;3.57;97.34
69302;BME280;56689;47.842;8.974;2023-12-20T22:54:27;96772.53;;;3.55;94.11
69302;BME280;56689;47.842;8.974;2023-12-20T22:56:53;96771.03;;;3.61;95.66
69302;BME280;56689;47.842;8.974;2023-12-20T22:59:20;96750.66;;;3.65;92.78
69302;BME280;56689;47.842;8.974;2023-12-20T23:01:45;96764.41;;;3.67;92.69
69302;BME280;56689;47.842;8.974;2023-12-20T23:04:11;96745.56;;;3.67;91.30
69302;BME280;56689;47.842;8.974;2023-12-20T23:06:41;96736.63;;;3.55;92.96
69302;BME280;56689;47.842;8.974;2023-12-20T23:09:06;96742.00;;;3.63;93.37
69302;BME280;56689;47.842;8.974;2023-12-20T23:11:33;96732.47;;;3.59;93.70
69302;BME280;56689;47.842;8.974;2023-12-20T23:13:59;96745.63;;;3.68;93.97
69302;BME280;56689;47.842;8.974;2023-12-20T23:16:24;96728.50;;;3.69;92.97
69302;BME280;56689;47.842;8.974;2023-12-20T23:18:50;96749.31;;;3.76;94.42
69302;BME280;56689;47.842;8.974;2023-12-20T23:21:15;96736.34;;;3.72;93.40
69302;BME280;56689;47.842;8.974;2023-12-20T23:23:41;96747.63;;;3.77;93.57
69302;BME280;56689;47.842;8.974;2023-12-20T23:26:06;96724.91;;;3.64;97.05
69302;BME280;56689;47.842;8.974;2023-12-20T23:28:32;96739.03;;;3.76;95.62
69302;BME280;56689;47.842;8.974;2023-12-20T23:30:57;96726.94;;;3.72;94.37
69302;BME280;56689;47.842;8.974;2023-12-20T23:33:23;96712.84;;;3.61;95.77
69302;BME280;56689;47.842;8.974;2023-12-20T23:35:48;96726.81;;;3.69;96.10
69302;BME280;56689;47.842;8.974;2023-12-20T23:38:14;96732.03;;;3.71;96.36
69302;BME280;56689;47.842;8.974;2023-12-20T23:40:39;96729.63;;;3.77;95.97
69302;BME280;56689;47.842;8.974;2023-12-20T23:43:05;96730.00;;;3.88;96.76
69302;BME280;56689;47.842;8.974;2023-12-20T23:45:30;96699.59;;;3.74;96.86
69302;BME280;56689;47.842;8.974;2023-12-20T23:47:57;96706.06;;;3.89;97.71
69302;BME280;56689;47.842;8.974;2023-12-20T23:50:23;96696.53;;;3.84;96.77
69302;BME280;56689;47.842;8.974;2023-12-20T23:52:48;96702.56;;;3.85;96.14
69302;BME280;56689;47.842;8.974;2023-12-20T23:55:15;96697.25;;;3.80;97.44
69302;BME280;56689;47.842;8.974;2023-12-20T23:57:42;96687.59;;;3.73;100.00
